sensor_id;sensor_type;location;lat;lon;timestamp;pressure;altitude;pressure_sealevel;temperature;humidity
46464;BME280;32161;48.148;-1.554;2023-05-22T00:00:08;101180.25;;;14.18;79.02
46464;BME280;32161;48.148;-1.554;2023-05-22T00:02:38;101177.63;;;14.23;79.07
46464;BME280;32161;48.148;-1.554;2023-05-22T00:05:09;101177.28;;;14.20;78.93
46464;BME280;32161;48.148;-1.554;2023-05-22T00:07:38;101176.94;;;14.16;79.07
46464;BME280;32161;48.148;-1.554;2023-05-22T00:10:07;101175.16;;;14.10;79.41
46464;BME280;32161;48.148;-1.554;2023-05-22T00:12:35;101178.41;;;14.07;79.59
46464;BME280;32161;48.148;-1.554;2023-05-22T00:15:04;101167.97;;;14.04;79.52
46464;BME280;32161;48.148;-1.554;2023-05-22T00:17:31;101166.78;;;14.00;79.51
46464;BME280;32161;48.148;-1.554;2023-05-22T00:20:01;101160.16;;;13.96;79.72
46464;BME280;32161;48.148;-1.554;2023-05-22T00:22:33;101166.44;;;13.96;79.81
46464;BME280;32161;48.148;-1.554;2023-05-22T00:25:01;101162.19;;;13.88;79.82
46464;BME280;32161;48.148;-1.554;2023-05-22T00:27:29;101168.06;;;13.68;80.57
46464;BME280;32161;48.148;-1.554;2023-05-22T00:29:57;101171.00;;;13.67;81.12
46464;BME280;32161;48.148;-1.554;2023-05-22T00:32:25;101170.28;;;13.72;80.92
46464;BME280;32161;48.148;-1.554;2023-05-22T00:34:53;101165.78;;;13.65;81.33
46464;BME280;32161;48.148;-1.554;2023-05-22T00:37:22;101162.25;;;13.65;81.38
46464;BME280;32161;48.148;-1.554;2023-05-22T00:39:50;101159.72;;;13.63;81.27
46464;BME280;32161;48.148;-1.554;2023-05-22T00:42:18;101157.00;;;13.63;81.14
46464;BME280;32161;48.148;-1.554;2023-05-22T00:44:46;101167.19;;;13.68;80.79
46464;BME280;32161;48.148;-1.554;2023-05-22T00:47:14;101168.19;;;13.62;80.59
46464;BME280;32161;48.148;-1.554;2023-05-22T00:49:42;101159.97;;;13.62;81.22
46464;BME280;32161;48.148;-1.554;2023-05-22T00:52:10;101161.53;;;13.58;80.73
46464;BME280;32161;48.148;-1.554;2023-05-22T00:54:41;101162.84;;;13.55;81.11
46464;BME280;32161;48.148;-1.554;2023-05-22T00:57:09;101163.66;;;13.56;81.31
46464;BME280;32161;48.148;-1.554;2023-05-22T00:59:37;101156.19;;;13.51;81.30
46464;BME280;32161;48.148;-1.554;2023-05-22T01:02:05;101159.03;;;13.44;81.89
46464;BME280;32161;48.148;-1.554;2023-05-22T01:04:32;101155.63;;;13.49;81.30
46464;BME280;32161;48.148;-1.554;2023-05-22T01:07:00;101152.41;;;13.40;81.36
46464;BME280;32161;48.148;-1.554;2023-05-22T01:09:28;101156.91;;;13.47;81.54
46464;BME280;32161;48.148;-1.554;2023-05-22T01:12:05;101159.53;;;13.41;82.22
46464;BME280;32161;48.148;-1.554;2023-05-22T01:14:50;101160.84;;;13.39;82.22
46464;BME280;32161;48.148;-1.554;2023-05-22T01:17:30;101152.66;;;13.27;81.52
46464;BME280;32161;48.148;-1.554;2023-05-22T01:20:10;101160.47;;;13.12;82.95
46464;BME280;32161;48.148;-1.554;2023-05-22T01:26:21;101156.91;;;13.11;83.56
46464;BME280;32161;48.148;-1.554;2023-05-22T01:29:14;101156.75;;;13.06;83.37
46464;BME280;32161;48.148;-1.554;2023-05-22T01:31:50;101162.22;;;13.06;83.92
46464;BME280;32161;48.148;-1.554;2023-05-22T01:34:20;101168.03;;;12.86;84.69
46464;BME280;32161;48.148;-1.554;2023-05-22T01:36:50;101175.03;;;12.94;84.62
46464;BME280;32161;48.148;-1.554;2023-05-22T01:39:19;101173.84;;;13.02;84.62
46464;BME280;32161;48.148;-1.554;2023-05-22T01:41:48;101169.34;;;12.95;84.22
46464;BME280;32161;48.148;-1.554;2023-05-22T01:44:16;101167.00;;;12.99;84.45
46464;BME280;32161;48.148;-1.554;2023-05-22T01:46:44;101167.47;;;12.96;84.60
46464;BME280;32161;48.148;-1.554;2023-05-22T01:49:13;101166.03;;;12.93;84.54
46464;BME280;32161;48.148;-1.554;2023-05-22T01:51:49;101163.66;;;12.97;84.37
46464;BME280;32161;48.148;-1.554;2023-05-22T01:54:23;101163.28;;;12.93;84.96
46464;BME280;32161;48.148;-1.554;2023-05-22T01:56:58;101168.72;;;12.82;85.33
46464;BME280;32161;48.148;-1.554;2023-05-22T01:59:33;101164.09;;;12.82;85.27
46464;BME280;32161;48.148;-1.554;2023-05-22T02:02:06;101164.47;;;12.86;85.05
46464;BME280;32161;48.148;-1.554;2023-05-22T02:04:39;101163.38;;;12.87;85.43
46464;BME280;32161;48.148;-1.554;2023-05-22T02:07:11;101166.34;;;12.74;85.00
46464;BME280;32161;48.148;-1.554;2023-05-22T02:09:40;101164.56;;;12.79;86.02
46464;BME280;32161;48.148;-1.554;2023-05-22T02:12:09;101170.53;;;12.88;85.27
46464;BME280;32161;48.148;-1.554;2023-05-22T02:14:37;101168.75;;;12.93;85.49
46464;BME280;32161;48.148;-1.554;2023-05-22T02:17:05;101160.16;;;12.66;86.11
46464;BME280;32161;48.148;-1.554;2023-05-22T02:19:34;101160.22;;;12.48;86.48
46464;BME280;32161;48.148;-1.554;2023-05-22T02:22:03;101158.16;;;12.62;87.16
46464;BME280;32161;48.148;-1.554;2023-05-22T02:24:32;101158.88;;;12.69;86.59
46464;BME280;32161;48.148;-1.554;2023-05-22T02:27:01;101157.81;;;12.70;85.77
46464;BME280;32161;48.148;-1.554;2023-05-22T02:29:29;101154.00;;;12.71;86.40
46464;BME280;32161;48.148;-1.554;2023-05-22T02:31:56;101152.41;;;12.52;87.78
46464;BME280;32161;48.148;-1.554;2023-05-22T02:34:24;101151.09;;;12.42;87.07
46464;BME280;32161;48.148;-1.554;2023-05-22T02:36:52;101151.84;;;12.50;87.40
46464;BME280;32161;48.148;-1.554;2023-05-22T02:39:22;101144.97;;;12.59;87.42
46464;BME280;32161;48.148;-1.554;2023-05-22T02:41:50;101144.34;;;12.57;86.90
46464;BME280;32161;48.148;-1.554;2023-05-22T02:44:17;101146.41;;;12.61;86.74
46464;BME280;32161;48.148;-1.554;2023-05-22T02:46:45;101143.63;;;12.38;87.48
46464;BME280;32161;48.148;-1.554;2023-05-22T02:49:13;101139.47;;;12.35;88.31
46464;BME280;32161;48.148;-1.554;2023-05-22T02:51:41;101143.78;;;12.55;87.41
46464;BME280;32161;48.148;-1.554;2023-05-22T02:54:13;101143.41;;;12.51;87.56
46464;BME280;32161;48.148;-1.554;2023-05-22T02:56:43;101144.66;;;12.37;87.95
46464;BME280;32161;48.148;-1.554;2023-05-22T02:59:11;101146.13;;;12.51;87.84
46464;BME280;32161;48.148;-1.554;2023-05-22T03:01:38;101146.50;;;12.55;87.56
46464;BME280;32161;48.148;-1.554;2023-05-22T03:04:06;101152.88;;;12.49;87.70
46464;BME280;32161;48.148;-1.554;2023-05-22T03:06:33;101150.97;;;12.49;87.51
46464;BME280;32161;48.148;-1.554;2023-05-22T03:09:02;101140.16;;;12.31;88.23
46464;BME280;32161;48.148;-1.554;2023-05-22T03:11:30;101150.72;;;12.39;88.50
46464;BME280;32161;48.148;-1.554;2023-05-22T03:13:59;101144.56;;;12.43;88.04
46464;BME280;32161;48.148;-1.554;2023-05-22T03:16:26;101150.81;;;12.32;88.59
46464;BME280;32161;48.148;-1.554;2023-05-22T03:19:08;101149.19;;;12.43;88.42
46464;BME280;32161;48.148;-1.554;2023-05-22T03:21:36;101146.66;;;12.30;89.02
46464;BME280;32161;48.148;-1.554;2023-05-22T03:24:04;101146.59;;;12.18;89.22
46464;BME280;32161;48.148;-1.554;2023-05-22T03:26:32;101154.06;;;12.11;90.09
46464;BME280;32161;48.148;-1.554;2023-05-22T03:29:01;101147.69;;;12.17;89.98
46464;BME280;32161;48.148;-1.554;2023-05-22T03:31:31;101149.66;;;12.10;90.66
46464;BME280;32161;48.148;-1.554;2023-05-22T03:33:58;101149.81;;;12.15;90.27
46464;BME280;32161;48.148;-1.554;2023-05-22T03:36:26;101149.66;;;12.10;90.35
46464;BME280;32161;48.148;-1.554;2023-05-22T03:38:54;101149.34;;;12.18;90.51
46464;BME280;32161;48.148;-1.554;2023-05-22T03:41:22;101152.22;;;12.23;90.13
46464;BME280;32161;48.148;-1.554;2023-05-22T03:43:49;101159.03;;;12.14;91.04
46464;BME280;32161;48.148;-1.554;2023-05-22T03:46:19;101154.78;;;12.18;91.00
46464;BME280;32161;48.148;-1.554;2023-05-22T03:48:46;101153.03;;;12.24;91.41
46464;BME280;32161;48.148;-1.554;2023-05-22T03:51:14;101159.69;;;11.97;91.66
46464;BME280;32161;48.148;-1.554;2023-05-22T03:53:42;101151.00;;;11.89;92.31
46464;BME280;32161;48.148;-1.554;2023-05-22T03:56:09;101151.94;;;12.13;92.20
46464;BME280;32161;48.148;-1.554;2023-05-22T03:58:37;101161.34;;;11.98;92.90
46464;BME280;32161;48.148;-1.554;2023-05-22T04:01:05;101154.91;;;11.74;93.47
46464;BME280;32161;48.148;-1.554;2023-05-22T04:03:36;101152.50;;;11.85;93.83
46464;BME280;32161;48.148;-1.554;2023-05-22T04:06:04;101157.41;;;11.76;93.90
46464;BME280;32161;48.148;-1.554;2023-05-22T04:08:32;101154.53;;;11.89;94.04
46464;BME280;32161;48.148;-1.554;2023-05-22T04:11:00;101157.84;;;11.91;94.25
46464;BME280;32161;48.148;-1.554;2023-05-22T04:13:28;101158.34;;;11.88;93.28
46464;BME280;32161;48.148;-1.554;2023-05-22T04:15:56;101159.53;;;11.92;93.35
46464;BME280;32161;48.148;-1.554;2023-05-22T04:18:24;101155.28;;;11.78;92.84
46464;BME280;32161;48.148;-1.554;2023-05-22T04:20:53;101154.59;;;11.64;94.28
46464;BME280;32161;48.148;-1.554;2023-05-22T04:23:21;101160.41;;;11.68;95.26
46464;BME280;32161;48.148;-1.554;2023-05-22T04:25:48;101156.97;;;11.61;94.46
46464;BME280;32161;48.148;-1.554;2023-05-22T04:28:16;101152.09;;;11.63;95.47
46464;BME280;32161;48.148;-1.554;2023-05-22T04:30:47;101155.91;;;11.80;94.47
46464;BME280;32161;48.148;-1.554;2023-05-22T04:33:15;101154.78;;;11.88;93.99
46464;BME280;32161;48.148;-1.554;2023-05-22T04:35:43;101156.44;;;11.89;94.17
46464;BME280;32161;48.148;-1.554;2023-05-22T04:38:12;101167.72;;;11.92;94.34
46464;BME280;32161;48.148;-1.554;2023-05-22T04:40:41;101162.25;;;11.92;94.29
46464;BME280;32161;48.148;-1.554;2023-05-22T04:43:09;101168.47;;;12.00;93.66
46464;BME280;32161;48.148;-1.554;2023-05-22T04:45:37;101169.06;;;12.02;93.51
46464;BME280;32161;48.148;-1.554;2023-05-22T04:48:07;101168.09;;;11.96;93.86
46464;BME280;32161;48.148;-1.554;2023-05-22T04:50:36;101173.63;;;11.89;93.61
46464;BME280;32161;48.148;-1.554;2023-05-22T04:53:03;101170.19;;;11.94;94.22
46464;BME280;32161;48.148;-1.554;2023-05-22T04:55:32;101178.88;;;12.03;93.94
46464;BME280;32161;48.148;-1.554;2023-05-22T04:58:00;101182.34;;;12.10;93.50
46464;BME280;32161;48.148;-1.554;2023-05-22T05:00:27;101181.06;;;12.12;93.26
46464;BME280;32161;48.148;-1.554;2023-05-22T05:02:55;101176.00;;;12.16;93.18
46464;BME280;32161;48.148;-1.554;2023-05-22T05:05:25;101176.13;;;12.21;93.30
46464;BME280;32161;48.148;-1.554;2023-05-22T05:07:52;101184.47;;;12.26;92.88
46464;BME280;32161;48.148;-1.554;2023-05-22T05:10:20;101173.56;;;12.26;92.84
46464;BME280;32161;48.148;-1.554;2023-05-22T05:12:49;101174.97;;;12.29;92.45
46464;BME280;32161;48.148;-1.554;2023-05-22T05:15:17;101176.00;;;12.16;92.59
46464;BME280;32161;48.148;-1.554;2023-05-22T05:17:45;101182.78;;;12.25;92.73
46464;BME280;32161;48.148;-1.554;2023-05-22T05:20:13;101182.34;;;12.28;92.89
46464;BME280;32161;48.148;-1.554;2023-05-22T05:22:40;101187.09;;;12.33;92.44
46464;BME280;32161;48.148;-1.554;2023-05-22T05:25:09;101192.78;;;12.31;92.85
46464;BME280;32161;48.148;-1.554;2023-05-22T05:27:36;101189.34;;;12.36;92.48
46464;BME280;32161;48.148;-1.554;2023-05-22T05:30:08;101193.53;;;12.38;93.08
46464;BME280;32161;48.148;-1.554;2023-05-22T05:32:36;101192.38;;;12.46;92.75
46464;BME280;32161;48.148;-1.554;2023-05-22T05:35:05;101192.75;;;12.50;92.79
46464;BME280;32161;48.148;-1.554;2023-05-22T05:37:33;101188.59;;;12.59;92.14
46464;BME280;32161;48.148;-1.554;2023-05-22T05:40:00;101196.53;;;12.60;92.15
46464;BME280;32161;48.148;-1.554;2023-05-22T05:42:29;101190.53;;;12.70;92.34
46464;BME280;32161;48.148;-1.554;2023-05-22T05:44:57;101191.59;;;12.69;92.03
46464;BME280;32161;48.148;-1.554;2023-05-22T05:47:26;101188.25;;;12.67;92.15
46464;BME280;32161;48.148;-1.554;2023-05-22T05:49:54;101195.38;;;12.68;92.61
46464;BME280;32161;48.148;-1.554;2023-05-22T05:58:39;101187.03;;;13.05;91.83
46464;BME280;32161;48.148;-1.554;2023-05-22T06:01:07;101185.75;;;13.19;91.34
46464;BME280;32161;48.148;-1.554;2023-05-22T06:03:36;101194.19;;;13.29;90.93
46464;BME280;32161;48.148;-1.554;2023-05-22T06:06:03;101186.25;;;13.39;90.33
46464;BME280;32161;48.148;-1.554;2023-05-22T06:08:32;101186.34;;;13.44;89.79
46464;BME280;32161;48.148;-1.554;2023-05-22T06:10:59;101197.78;;;13.53;89.35
46464;BME280;32161;48.148;-1.554;2023-05-22T06:13:28;101187.03;;;13.63;88.64
46464;BME280;32161;48.148;-1.554;2023-05-22T06:15:56;101184.28;;;13.75;88.33
46464;BME280;32161;48.148;-1.554;2023-05-22T06:18:23;101189.53;;;13.77;88.14
46464;BME280;32161;48.148;-1.554;2023-05-22T06:20:53;101188.91;;;13.86;87.59
46464;BME280;32161;48.148;-1.554;2023-05-22T06:23:22;101189.47;;;14.00;87.50
46464;BME280;32161;48.148;-1.554;2023-05-22T06:25:49;101191.00;;;14.08;87.26
46464;BME280;32161;48.148;-1.554;2023-05-22T06:28:17;101195.34;;;14.21;86.96
46464;BME280;32161;48.148;-1.554;2023-05-22T06:30:44;101199.69;;;14.33;85.78
46464;BME280;32161;48.148;-1.554;2023-05-22T06:33:12;101191.94;;;14.42;85.11
46464;BME280;32161;48.148;-1.554;2023-05-22T06:35:40;101193.91;;;14.58;84.30
46464;BME280;32161;48.148;-1.554;2023-05-22T06:38:09;101203.13;;;14.69;83.01
46464;BME280;32161;48.148;-1.554;2023-05-22T06:40:37;101206.22;;;14.73;82.64
46464;BME280;32161;48.148;-1.554;2023-05-22T06:43:05;101212.59;;;14.78;82.63
46464;BME280;32161;48.148;-1.554;2023-05-22T06:45:32;101220.50;;;14.92;82.05
46464;BME280;32161;48.148;-1.554;2023-05-22T06:48:02;101217.09;;;15.01;81.50
46464;BME280;32161;48.148;-1.554;2023-05-22T06:50:30;101229.88;;;15.12;81.38
46464;BME280;32161;48.148;-1.554;2023-05-22T06:52:58;101233.84;;;15.22;80.98
46464;BME280;32161;48.148;-1.554;2023-05-22T06:55:27;101241.47;;;15.36;80.52
46464;BME280;32161;48.148;-1.554;2023-05-22T06:57:55;101244.13;;;15.48;80.06
46464;BME280;32161;48.148;-1.554;2023-05-22T07:00:22;101246.78;;;15.60;79.09
46464;BME280;32161;48.148;-1.554;2023-05-22T07:02:50;101251.13;;;15.73;78.79
46464;BME280;32161;48.148;-1.554;2023-05-22T07:05:17;101252.94;;;15.84;78.02
46464;BME280;32161;48.148;-1.554;2023-05-22T07:07:45;101248.06;;;15.91;77.91
46464;BME280;32161;48.148;-1.554;2023-05-22T07:10:13;101248.72;;;15.98;77.68
46464;BME280;32161;48.148;-1.554;2023-05-22T07:12:41;101251.34;;;16.10;78.08
46464;BME280;32161;48.148;-1.554;2023-05-22T07:15:10;101257.00;;;16.25;77.81
46464;BME280;32161;48.148;-1.554;2023-05-22T07:17:39;101258.25;;;16.34;77.43
46464;BME280;32161;48.148;-1.554;2023-05-22T07:20:08;101247.63;;;16.43;76.61
46464;BME280;32161;48.148;-1.554;2023-05-22T07:22:37;101254.31;;;16.52;76.07
46464;BME280;32161;48.148;-1.554;2023-05-22T07:25:05;101256.91;;;16.64;76.28
46464;BME280;32161;48.148;-1.554;2023-05-22T07:27:33;101261.38;;;16.70;76.52
46464;BME280;32161;48.148;-1.554;2023-05-22T07:30:03;101264.50;;;16.79;75.86
46464;BME280;32161;48.148;-1.554;2023-05-22T07:32:30;101270.63;;;16.86;74.34
46464;BME280;32161;48.148;-1.554;2023-05-22T07:34:58;101265.97;;;16.87;75.10
46464;BME280;32161;48.148;-1.554;2023-05-22T07:37:25;101259.75;;;16.96;75.38
46464;BME280;32161;48.148;-1.554;2023-05-22T07:39:53;101253.78;;;17.04;74.88
46464;BME280;32161;48.148;-1.554;2023-05-22T07:42:20;101260.69;;;17.07;73.81
46464;BME280;32161;48.148;-1.554;2023-05-22T07:44:48;101257.75;;;17.19;73.99
46464;BME280;32161;48.148;-1.554;2023-05-22T07:47:17;101265.22;;;17.23;74.37
46464;BME280;32161;48.148;-1.554;2023-05-22T07:49:45;101263.09;;;17.36;73.90
46464;BME280;32161;48.148;-1.554;2023-05-22T07:52:12;101265.34;;;17.39;73.69
46464;BME280;32161;48.148;-1.554;2023-05-22T07:54:40;101258.00;;;17.49;73.03
46464;BME280;32161;48.148;-1.554;2023-05-22T07:57:08;101257.72;;;17.51;73.16
46464;BME280;32161;48.148;-1.554;2023-05-22T07:59:37;101262.78;;;17.64;73.34
46464;BME280;32161;48.148;-1.554;2023-05-22T08:02:05;101266.44;;;17.75;72.36
46464;BME280;32161;48.148;-1.554;2023-05-22T08:04:36;101263.44;;;17.81;72.41
46464;BME280;32161;48.148;-1.554;2023-05-22T08:07:04;101257.47;;;17.95;71.72
46464;BME280;32161;48.148;-1.554;2023-05-22T08:09:32;101255.53;;;17.90;72.76
46464;BME280;32161;48.148;-1.554;2023-05-22T08:11:59;101261.38;;;17.99;72.48
46464;BME280;32161;48.148;-1.554;2023-05-22T08:14:44;101257.53;;;18.10;72.41
46464;BME280;32161;48.148;-1.554;2023-05-22T08:17:14;101262.81;;;18.17;71.71
46464;BME280;32161;48.148;-1.554;2023-05-22T08:19:43;101260.94;;;18.33;70.77
46464;BME280;32161;48.148;-1.554;2023-05-22T08:22:11;101258.00;;;18.54;70.54
46464;BME280;32161;48.148;-1.554;2023-05-22T08:24:38;101253.84;;;18.52;71.56
46464;BME280;32161;48.148;-1.554;2023-05-22T08:27:06;101270.66;;;18.55;71.04
46464;BME280;32161;48.148;-1.554;2023-05-22T08:29:33;101259.47;;;18.72;68.80
46464;BME280;32161;48.148;-1.554;2023-05-22T08:32:01;101258.06;;;18.75;68.31
46464;BME280;32161;48.148;-1.554;2023-05-22T08:34:28;101259.47;;;18.72;68.56
46464;BME280;32161;48.148;-1.554;2023-05-22T08:36:58;101263.88;;;18.94;69.13
46464;BME280;32161;48.148;-1.554;2023-05-22T08:39:26;101264.69;;;18.79;69.98
46464;BME280;32161;48.148;-1.554;2023-05-22T08:41:55;101264.44;;;18.86;69.55
46464;BME280;32161;48.148;-1.554;2023-05-22T08:44:22;101261.94;;;18.94;69.70
46464;BME280;32161;48.148;-1.554;2023-05-22T08:46:51;101257.84;;;19.17;68.84
46464;BME280;32161;48.148;-1.554;2023-05-22T08:49:22;101252.91;;;19.30;69.15
46464;BME280;32161;48.148;-1.554;2023-05-22T08:51:58;101248.47;;;19.13;66.20
46464;BME280;32161;48.148;-1.554;2023-05-22T08:54:27;101255.09;;;19.22;68.70
46464;BME280;32161;48.148;-1.554;2023-05-22T08:56:56;101250.94;;;19.05;67.42
46464;BME280;32161;48.148;-1.554;2023-05-22T08:59:24;101257.88;;;19.22;65.66
46464;BME280;32161;48.148;-1.554;2023-05-22T09:01:52;101252.91;;;19.30;67.36
46464;BME280;32161;48.148;-1.554;2023-05-22T09:04:20;101248.47;;;19.39;66.82
46464;BME280;32161;48.148;-1.554;2023-05-22T09:06:50;101255.38;;;19.21;66.37
46464;BME280;32161;48.148;-1.554;2023-05-22T09:09:19;101249.59;;;19.27;68.98
46464;BME280;32161;48.148;-1.554;2023-05-22T09:11:46;101250.66;;;19.21;68.52
46464;BME280;32161;48.148;-1.554;2023-05-22T09:14:14;101256.44;;;19.40;68.32
46464;BME280;32161;48.148;-1.554;2023-05-22T09:16:46;101259.22;;;19.61;68.17
46464;BME280;32161;48.148;-1.554;2023-05-22T09:19:14;101249.56;;;19.68;67.52
46464;BME280;32161;48.148;-1.554;2023-05-22T09:21:42;101259.50;;;19.54;64.97
46464;BME280;32161;48.148;-1.554;2023-05-22T09:24:10;101256.72;;;19.44;66.02
46464;BME280;32161;48.148;-1.554;2023-05-22T09:26:40;101253.44;;;19.42;64.59
46464;BME280;32161;48.148;-1.554;2023-05-22T09:29:08;101255.06;;;19.58;64.91
46464;BME280;32161;48.148;-1.554;2023-05-22T09:31:40;101256.47;;;19.45;65.09
46464;BME280;32161;48.148;-1.554;2023-05-22T09:34:09;101256.72;;;19.59;64.25
46464;BME280;32161;48.148;-1.554;2023-05-22T09:36:39;101250.09;;;19.70;64.39
46464;BME280;32161;48.148;-1.554;2023-05-22T09:39:07;101250.94;;;19.61;63.86
46464;BME280;32161;48.148;-1.554;2023-05-22T09:41:38;101252.31;;;19.73;65.01
46464;BME280;32161;48.148;-1.554;2023-05-22T09:44:15;101251.75;;;19.77;65.21
46464;BME280;32161;48.148;-1.554;2023-05-22T09:46:45;101252.28;;;19.79;64.41
46464;BME280;32161;48.148;-1.554;2023-05-22T09:49:13;101249.50;;;19.99;65.59
46464;BME280;32161;48.148;-1.554;2023-05-22T09:51:41;101254.44;;;20.07;65.67
46464;BME280;32161;48.148;-1.554;2023-05-22T09:54:14;101251.63;;;20.17;64.88
46464;BME280;32161;48.148;-1.554;2023-05-22T09:56:43;101249.13;;;20.21;64.39
46464;BME280;32161;48.148;-1.554;2023-05-22T09:59:13;101263.16;;;20.35;64.06
46464;BME280;32161;48.148;-1.554;2023-05-22T10:01:42;101255.72;;;20.30;64.35
46464;BME280;32161;48.148;-1.554;2023-05-22T10:04:12;101257.06;;;20.38;65.04
46464;BME280;32161;48.148;-1.554;2023-05-22T10:06:41;101260.91;;;20.37;63.96
46464;BME280;32161;48.148;-1.554;2023-05-22T10:09:15;101253.16;;;20.44;63.94
46464;BME280;32161;48.148;-1.554;2023-05-22T10:11:46;101254.50;;;20.57;63.91
46464;BME280;32161;48.148;-1.554;2023-05-22T10:14:15;101246.97;;;20.72;63.17
46464;BME280;32161;48.148;-1.554;2023-05-22T10:16:43;101258.69;;;20.93;63.82
46464;BME280;32161;48.148;-1.554;2023-05-22T10:19:11;101253.59;;;21.11;65.13
46464;BME280;32161;48.148;-1.554;2023-05-22T10:21:40;101252.03;;;21.29;61.80
46464;BME280;32161;48.148;-1.554;2023-05-22T10:24:09;101251.41;;;21.42;59.74
46464;BME280;32161;48.148;-1.554;2023-05-22T10:26:37;101249.09;;;21.54;58.86
46464;BME280;32161;48.148;-1.554;2023-05-22T10:29:11;101235.34;;;21.44;61.95
46464;BME280;32161;48.148;-1.554;2023-05-22T10:31:47;101239.03;;;21.63;57.96
46464;BME280;32161;48.148;-1.554;2023-05-22T10:34:28;101243.63;;;21.49;58.45
46464;BME280;32161;48.148;-1.554;2023-05-22T10:37:16;101237.38;;;21.62;59.20
46464;BME280;32161;48.148;-1.554;2023-05-22T10:40:00;101243.09;;;21.71;60.60
46464;BME280;32161;48.148;-1.554;2023-05-22T10:42:30;101234.38;;;21.83;60.62
46464;BME280;32161;48.148;-1.554;2023-05-22T10:45:00;101242.59;;;21.93;61.54
46464;BME280;32161;48.148;-1.554;2023-05-22T10:47:28;101244.94;;;22.05;58.71
46464;BME280;32161;48.148;-1.554;2023-05-22T10:50:06;101237.44;;;22.05;57.92
46464;BME280;32161;48.148;-1.554;2023-05-22T10:52:34;101227.28;;;22.01;58.64
46464;BME280;32161;48.148;-1.554;2023-05-22T10:55:05;101231.91;;;22.05;59.79
46464;BME280;32161;48.148;-1.554;2023-05-22T10:57:36;101233.44;;;22.22;60.90
46464;BME280;32161;48.148;-1.554;2023-05-22T11:00:11;101239.41;;;22.29;60.21
46464;BME280;32161;48.148;-1.554;2023-05-22T11:02:43;101240.69;;;22.36;59.95
46464;BME280;32161;48.148;-1.554;2023-05-22T11:05:37;101236.25;;;22.16;58.50
46464;BME280;32161;48.148;-1.554;2023-05-22T11:08:35;101242.28;;;21.70;59.62
46464;BME280;32161;48.148;-1.554;2023-05-22T11:11:13;101232.66;;;21.63;58.74
46464;BME280;32161;48.148;-1.554;2023-05-22T11:13:40;101228.81;;;21.88;58.84
46464;BME280;32161;48.148;-1.554;2023-05-22T11:16:11;101233.97;;;21.94;60.81
46464;BME280;32161;48.148;-1.554;2023-05-22T11:18:42;101225.50;;;21.86;57.18
46464;BME280;32161;48.148;-1.554;2023-05-22T11:21:11;101218.72;;;21.97;58.68
46464;BME280;32161;48.148;-1.554;2023-05-22T11:23:39;101227.66;;;22.13;59.37
46464;BME280;32161;48.148;-1.554;2023-05-22T11:26:20;101222.63;;;21.96;56.01
46464;BME280;32161;48.148;-1.554;2023-05-22T11:28:50;101216.84;;;21.68;57.95
46464;BME280;32161;48.148;-1.554;2023-05-22T11:31:19;101224.22;;;21.78;58.83
46464;BME280;32161;48.148;-1.554;2023-05-22T11:33:48;101218.81;;;22.16;58.96
46464;BME280;32161;48.148;-1.554;2023-05-22T11:36:18;101225.63;;;22.24;58.98
46464;BME280;32161;48.148;-1.554;2023-05-22T11:38:46;101224.47;;;22.30;56.50
46464;BME280;32161;48.148;-1.554;2023-05-22T11:41:14;101220.44;;;22.41;58.09
46464;BME280;32161;48.148;-1.554;2023-05-22T11:43:42;101226.56;;;22.38;56.35
46464;BME280;32161;48.148;-1.554;2023-05-22T11:46:10;101226.47;;;22.43;57.40
46464;BME280;32161;48.148;-1.554;2023-05-22T11:48:42;101223.84;;;22.52;56.10
46464;BME280;32161;48.148;-1.554;2023-05-22T11:51:09;101227.31;;;22.62;56.64
46464;BME280;32161;48.148;-1.554;2023-05-22T11:53:39;101231.88;;;22.53;55.81
46464;BME280;32161;48.148;-1.554;2023-05-22T11:56:07;101232.56;;;22.45;57.66
46464;BME280;32161;48.148;-1.554;2023-05-22T11:58:34;101218.09;;;22.67;57.48
46464;BME280;32161;48.148;-1.554;2023-05-22T12:01:02;101215.19;;;22.96;56.24
46464;BME280;32161;48.148;-1.554;2023-05-22T12:03:31;101228.19;;;23.14;57.59
46464;BME280;32161;48.148;-1.554;2023-05-22T12:05:58;101224.03;;;23.31;55.73
46464;BME280;32161;48.148;-1.554;2023-05-22T12:08:27;101221.91;;;23.42;54.63
46464;BME280;32161;48.148;-1.554;2023-05-22T12:10:57;101223.94;;;23.36;56.03
46464;BME280;32161;48.148;-1.554;2023-05-22T12:13:26;101222.72;;;23.42;55.51
46464;BME280;32161;48.148;-1.554;2023-05-22T12:15:57;101228.91;;;23.53;55.18
46464;BME280;32161;48.148;-1.554;2023-05-22T12:18:26;101235.66;;;23.47;54.81
46464;BME280;32161;48.148;-1.554;2023-05-22T12:20:54;101228.78;;;23.44;56.04
46464;BME280;32161;48.148;-1.554;2023-05-22T12:23:26;101222.56;;;23.66;54.59
46464;BME280;32161;48.148;-1.554;2023-05-22T12:26:03;101220.34;;;23.68;56.36
46464;BME280;32161;48.148;-1.554;2023-05-22T12:28:34;101223.97;;;23.63;56.53
46464;BME280;32161;48.148;-1.554;2023-05-22T12:31:04;101224.81;;;23.64;55.60
46464;BME280;32161;48.148;-1.554;2023-05-22T12:33:32;101230.97;;;23.61;55.12
46464;BME280;32161;48.148;-1.554;2023-05-22T12:36:05;101229.50;;;23.50;56.27
46464;BME280;32161;48.148;-1.554;2023-05-22T12:38:33;101226.91;;;23.72;56.67
46464;BME280;32161;48.148;-1.554;2023-05-22T12:41:02;101226.59;;;23.74;55.56
46464;BME280;32161;48.148;-1.554;2023-05-22T12:43:29;101224.72;;;23.83;55.84
46464;BME280;32161;48.148;-1.554;2023-05-22T12:45:57;101225.94;;;23.63;56.20
46464;BME280;32161;48.148;-1.554;2023-05-22T12:48:25;101224.44;;;23.71;55.42
46464;BME280;32161;48.148;-1.554;2023-05-22T12:50:52;101220.53;;;23.72;55.42
46464;BME280;32161;48.148;-1.554;2023-05-22T12:53:21;101222.22;;;23.54;54.72
46464;BME280;32161;48.148;-1.554;2023-05-22T12:55:48;101208.03;;;23.55;55.06
46464;BME280;32161;48.148;-1.554;2023-05-22T12:58:17;101216.88;;;23.57;57.56
46464;BME280;32161;48.148;-1.554;2023-05-22T13:00:45;101217.53;;;23.82;56.44